createdAt,value
2022-11-03T00:01:17.089Z,100542.09
2022-11-03T00:06:18.414Z,100552.25
2022-11-03T00:11:19.682Z,100539.38
2022-11-03T00:16:21.110Z,100536.00
2022-11-03T00:21:22.491Z,100528.63
2022-11-03T00:26:26.262Z,100529.72
2022-11-03T00:31:29.874Z,100521.50
2022-11-03T00:36:33.551Z,100517.38
2022-11-03T00:41:34.924Z,100503.31
2022-11-03T00:46:36.353Z,100503.78
2022-11-03T00:51:37.656Z,100482.97
2022-11-03T00:56:41.471Z,100478.00
2022-11-03T01:01:47.137Z,100485.25
2022-11-03T01:06:50.837Z,100495.19
2022-11-03T01:12:10.194Z,100485.34
2022-11-03T01:17:25.428Z,100478.31
2022-11-03T01:22:26.727Z,100472.53
2022-11-03T01:27:28.032Z,100463.53
2022-11-03T01:32:29.359Z,100461.47
2022-11-03T01:37:30.737Z,100456.44
2022-11-03T01:42:32.085Z,100463.09
2022-11-03T01:47:35.714Z,100440.59
2022-11-03T01:52:55.018Z,100441.06
2022-11-03T01:58:07.244Z,100432.13
2022-11-03T02:03:09.429Z,100420.84
2022-11-03T02:08:22.288Z,100422.19
2022-11-03T02:13:27.292Z,100415.44
2022-11-03T02:18:33.358Z,100401.38
2022-11-03T02:23:43.408Z,100396.06
2022-11-03T02:28:44.908Z,100386.63
2022-11-03T02:33:58.524Z,100372.44
2022-11-03T02:39:09.613Z,100374.88
2022-11-03T02:44:17.155Z,100366.28
2022-11-03T02:49:18.527Z,100367.25
2022-11-03T02:54:25.912Z,100368.66
2022-11-03T02:59:32.184Z,100347.63
2022-11-03T03:04:40.617Z,100351.53
2022-11-03T03:09:50.651Z,100349.81
2022-11-03T03:14:54.530Z,100350.88
2022-11-03T03:20:07.586Z,100337.44
2022-11-03T03:25:16.333Z,100326.97
2022-11-03T03:30:18.676Z,100316.66
2022-11-03T03:35:25.057Z,100313.75
2022-11-03T03:40:31.461Z,100311.09
2022-11-03T03:45:35.084Z,100311.44
2022-11-03T03:50:38.380Z,100297.50
2022-11-03T03:55:45.161Z,100301.75
2022-11-03T04:00:46.597Z,100301.91
2022-11-03T04:05:48.389Z,100296.13
2022-11-03T04:11:08.374Z,100293.91
2022-11-03T04:16:28.193Z,100285.94
2022-11-03T04:21:47.980Z,100273.56
2022-11-03T04:26:49.357Z,100274.56
2022-11-03T04:31:50.634Z,100270.09
2022-11-03T04:36:52.009Z,100265.38
2022-11-03T04:41:53.334Z,100269.00
2022-11-03T04:46:54.621Z,100262.94
2022-11-03T04:51:55.924Z,100258.56
2022-11-03T04:56:57.196Z,100249.25
2022-11-03T05:01:59.225Z,100248.22
2022-11-03T05:07:00.650Z,100225.59
2022-11-03T05:12:01.977Z,100229.97
2022-11-03T05:17:15.450Z,100223.28
2022-11-03T05:22:20.853Z,100224.38
2022-11-03T05:27:22.577Z,100220.63
2022-11-03T05:32:30.284Z,100209.75
2022-11-03T05:37:33.341Z,100198.75
2022-11-03T05:42:37.719Z,100201.91
2022-11-03T05:47:40.317Z,100187.41
2022-11-03T05:52:43.980Z,100174.44
2022-11-03T05:57:45.489Z,100177.94
2022-11-03T06:02:49.457Z,100174.81
2022-11-03T06:07:54.164Z,100169.84
2022-11-03T06:12:59.742Z,100165.38
2022-11-03T06:18:12.786Z,100150.41
2022-11-03T06:23:17.102Z,100144.72
2022-11-03T06:28:22.626Z,100139.53
2022-11-03T06:33:28.135Z,100144.97
2022-11-03T06:38:31.606Z,100151.72
2022-11-03T06:43:42.436Z,100145.47
2022-11-03T06:48:45.184Z,100139.78
2022-11-03T06:53:47.346Z,100137.25
2022-11-03T06:58:52.017Z,100140.06
2022-11-03T07:03:57.682Z,100137.97
2022-11-03T07:09:01.304Z,100127.72
2022-11-03T07:14:12.146Z,100120.22
2022-11-03T07:19:25.001Z,100120.28
2022-11-03T07:24:33.555Z,100115.22
2022-11-03T07:29:34.846Z,100108.31
2022-11-03T07:34:36.666Z,100092.81
2022-11-03T07:39:38.707Z,100080.88
2022-11-03T07:44:40.636Z,100067.88
2022-11-03T07:49:42.624Z,100057.47
2022-11-03T07:54:44.269Z,100048.69
2022-11-03T07:59:48.845Z,100046.50
2022-11-03T08:04:50.172Z,100029.63
2022-11-03T08:09:52.391Z,100035.25
2022-11-03T08:14:54.383Z,100017.56
2022-11-03T08:19:55.771Z,100011.47
2022-11-03T08:24:58.638Z,99997.44
2022-11-03T08:30:00.259Z,99983.44
2022-11-03T08:35:01.575Z,99984.59
2022-11-03T08:40:07.440Z,99978.78
2022-11-03T08:45:10.007Z,99974.03
2022-11-03T08:50:11.385Z,99972.13
2022-11-03T08:55:12.948Z,99957.56
2022-11-03T09:00:16.962Z,99958.63
2022-11-03T09:05:18.631Z,99943.97
2022-11-03T09:10:22.247Z,99949.63
2022-11-03T09:15:26.523Z,99961.09
2022-11-03T09:20:27.827Z,99960.81
2022-11-03T09:25:29.212Z,99972.19
2022-11-03T09:30:30.960Z,99960.91
2022-11-03T09:35:32.333Z,99932.38
2022-11-03T09:40:35.694Z,99923.56
2022-11-03T09:45:38.644Z,99905.34
2022-11-03T09:50:40.069Z,99900.03
2022-11-03T09:55:41.395Z,99896.19
2022-11-03T10:00:43.397Z,99889.09
2022-11-03T10:05:45.433Z,99881.16
2022-11-03T10:10:46.885Z,99869.47
2022-11-03T10:15:48.319Z,99858.00
2022-11-03T10:20:49.718Z,99841.09
2022-11-03T10:25:51.087Z,99826.34
2022-11-03T10:31:10.544Z,99810.81
2022-11-03T10:36:15.680Z,99787.47
2022-11-03T10:41:26.051Z,99754.00
2022-11-03T10:51:52.363Z,99746.19
2022-11-03T10:56:53.847Z,99742.97
2022-11-03T11:01:55.366Z,99758.19
2022-11-03T11:06:56.817Z,99748.00
2022-11-03T11:11:58.826Z,99737.06
2022-11-03T11:17:01.677Z,99699.59
2022-11-03T11:22:13.331Z,99699.59
2022-11-03T11:27:31.709Z,99681.22
2022-11-03T11:32:42.104Z,99681.78
2022-11-03T11:37:44.129Z,99673.00
2022-11-03T11:43:10.976Z,99648.00
2022-11-03T11:48:19.243Z,99636.50
2022-11-03T11:53:25.066Z,99626.34
2022-11-03T11:58:33.126Z,99635.06
2022-11-03T12:03:41.165Z,99636.06
2022-11-03T12:08:43.201Z,99637.44
2022-11-03T12:13:51.015Z,99622.34
2022-11-03T12:18:52.759Z,99617.69
2022-11-03T12:23:54.154Z,99617.50
2022-11-03T12:28:55.696Z,99591.19
2022-11-03T12:33:56.994Z,99580.09
2022-11-03T12:38:58.278Z,99571.75
2022-11-03T12:43:59.729Z,99553.31
2022-11-03T12:49:01.074Z,99528.88
2022-11-03T12:54:02.357Z,99526.50
2022-11-03T12:59:03.930Z,99514.66
2022-11-03T13:04:06.071Z,99517.66
2022-11-03T13:09:07.429Z,99509.13
2022-11-03T13:14:08.819Z,99500.56
2022-11-03T13:19:10.717Z,99487.50
2022-11-03T13:24:12.110Z,99465.78
2022-11-03T13:29:13.406Z,99451.16
2022-11-03T13:34:14.715Z,99444.28
2022-11-03T13:39:16.363Z,99438.09
2022-11-03T13:44:17.755Z,99418.88
2022-11-03T13:50:07.671Z,99405.34
2022-11-03T14:00:08.019Z,99393.00
2022-11-03T14:05:11.684Z,99397.19
2022-11-03T14:10:13.335Z,99390.78
2022-11-03T14:15:14.687Z,99373.91
2022-11-03T14:20:16.082Z,99361.50
2022-11-03T14:25:20.055Z,99345.94
2022-11-03T14:30:21.411Z,99324.53
2022-11-03T14:35:23.726Z,99329.38
2022-11-03T14:40:43.854Z,99308.66
2022-11-03T14:45:45.181Z,99279.06
2022-11-03T14:50:46.507Z,99285.25
2022-11-03T14:55:47.782Z,99276.56
2022-11-03T15:00:49.226Z,99289.47
2022-11-03T15:05:54.263Z,99286.97
2022-11-03T15:10:56.303Z,99275.75
2022-11-03T15:15:57.980Z,99265.56
2022-11-03T15:20:59.718Z,99262.22
2022-11-03T15:26:02.476Z,99247.19
2022-11-03T15:31:04.281Z,99244.69
2022-11-03T15:36:07.384Z,99217.78
2022-11-03T15:41:19.671Z,99230.31
2022-11-03T15:46:21.279Z,99209.78
2022-11-03T15:51:22.577Z,99209.59
2022-11-03T15:56:23.864Z,99201.91
2022-11-03T16:01:25.266Z,99195.41
2022-11-03T16:06:46.549Z,99184.06
2022-11-03T16:11:48.234Z,99164.66
2022-11-03T16:16:49.526Z,99166.47
2022-11-03T16:21:51.596Z,99152.56
2022-11-03T16:26:52.944Z,99146.41
2022-11-03T16:31:54.427Z,99137.72
2022-11-03T16:36:56.220Z,99137.22
2022-11-03T16:41:57.619Z,99123.53
2022-11-03T16:46:58.902Z,99122.19
2022-11-03T16:52:00.366Z,99113.53
2022-11-03T16:57:01.754Z,99119.88
2022-11-03T17:02:03.160Z,99112.84
2022-11-03T17:07:04.623Z,99112.50
2022-11-03T17:12:06.208Z,99115.13
2022-11-03T17:17:07.656Z,99098.41
2022-11-03T17:22:09.070Z,99101.09
2022-11-03T17:27:14.987Z,99099.28
2022-11-03T17:32:24.715Z,99084.09
2022-11-03T17:37:26.902Z,99061.91
2022-11-03T17:42:28.634Z,99058.91
2022-11-03T17:47:31.617Z,99024.31
2022-11-03T17:52:33.603Z,99016.81
2022-11-03T17:57:35.633Z,99017.34
2022-11-03T18:02:39.425Z,99010.69
2022-11-03T18:07:42.732Z,99008.97
2022-11-03T18:13:05.362Z,98992.28
2022-11-03T18:18:13.874Z,98980.31
2022-11-03T18:23:21.449Z,98976.44
2022-11-03T18:28:22.841Z,98962.25
2022-11-03T18:33:27.000Z,98951.19
2022-11-03T18:38:28.595Z,98950.66
2022-11-03T18:43:30.091Z,98938.81
2022-11-03T18:48:31.784Z,98934.28
2022-11-03T18:53:34.027Z,98939.47
2022-11-03T18:58:35.411Z,98940.50
2022-11-03T19:03:36.790Z,98979.44
2022-11-03T19:08:38.109Z,99004.03
2022-11-03T19:13:44.395Z,98974.00
2022-11-03T19:18:46.036Z,98965.16
2022-11-03T19:23:49.674Z,99000.91
2022-11-03T19:29:00.022Z,98967.38
2022-11-03T19:34:02.590Z,98953.00
2022-11-03T19:39:14.435Z,98935.94
2022-11-03T19:44:15.780Z,98924.22
2022-11-03T19:49:17.114Z,98910.84
2022-11-03T19:54:21.105Z,98906.16
2022-11-03T19:59:22.466Z,98910.16
2022-11-03T20:04:23.845Z,98906.84
2022-11-03T20:14:29.433Z,98916.25
2022-11-03T20:19:30.720Z,98907.78
2022-11-03T20:24:32.514Z,98900.63
2022-11-03T20:29:34.996Z,98896.31
2022-11-03T20:34:37.033Z,98896.66
2022-11-03T20:39:38.448Z,98888.97
2022-11-03T20:44:39.927Z,98879.66
2022-11-03T20:49:41.342Z,98862.47
2022-11-03T20:54:46.114Z,98859.63
2022-11-03T20:59:47.580Z,98853.81
2022-11-03T21:04:48.960Z,98844.94
2022-11-03T21:09:50.300Z,98837.63
2022-11-03T21:15:10.051Z,98822.44
2022-11-03T21:20:12.093Z,98815.28
2022-11-03T21:25:15.974Z,98808.28
2022-11-03T21:30:18.109Z,98826.81
2022-11-03T21:35:21.480Z,98822.31
2022-11-03T21:40:23.066Z,98835.94
2022-11-03T21:45:24.893Z,98844.63
2022-11-03T21:50:26.318Z,98850.63
2022-11-03T21:55:28.852Z,98850.47
2022-11-03T22:00:30.701Z,98846.63
2022-11-03T22:05:32.235Z,98835.94
2022-11-03T22:10:33.560Z,98826.28
2022-11-03T22:15:53.724Z,98842.66
2022-11-03T22:21:16.349Z,98863.97
2022-11-03T22:26:36.345Z,98854.34
2022-11-03T22:31:40.439Z,98870.34
2022-11-03T22:36:41.768Z,98872.34
2022-11-03T22:42:06.079Z,98850.66
2022-11-03T22:47:08.557Z,98858.03
2022-11-03T22:52:10.589Z,98884.72
2022-11-03T22:57:13.076Z,98887.38
2022-11-03T23:02:14.423Z,98881.53
2022-11-03T23:07:15.813Z,98889.03
2022-11-03T23:12:17.095Z,98893.72
2022-11-03T23:17:18.354Z,98904.72
2022-11-03T23:22:19.622Z,98925.06
2022-11-03T23:27:20.906Z,98925.22
2022-11-03T23:32:22.333Z,98924.41
2022-11-03T23:37:23.672Z,98935.41
2022-11-03T23:42:24.982Z,98932.69
2022-11-03T23:47:45.243Z,98937.03
2022-11-03T23:52:46.687Z,98949.72
2022-11-03T23:58:07.055Z,98939.69
